Time;durP1;ratioP1;P1;durP2;ratioP2;P2;SDS_P1;SDS_P2;PMS_P1;PMS_P2;Temp;Humidity;BMP_temperature;BMP_pressure;BME280_temperature;BME280_humidity;BME280_pressure;Samples;Min_cycle;Max_cycle;Signal;HPM_P1;HPM_P2
2021/05/18 00:01:47;;;;;;;0.57;0.57;;;7.70;99.90;;;;;;5058383;28;20543;-84
2021/05/18 00:04:13;;;;;;;0.90;0.80;;;;;;;;;;5040700;28;20177;-84
2021/05/18 00:06:40;;;;;;;0.50;0.50;;;;;;;;;;5041282;28;20658;-84
2021/05/18 00:11:51;;;;;;;0.70;0.70;;;7.70;99.90;;;;;;5062853;28;20949;-84
2021/05/18 00:14:23;;;;;;;0.50;0.50;;;7.80;99.90;;;;;;5062180;28;20460;-84
2021/05/18 00:16:50;;;;;;;0.50;0.50;;;7.80;99.90;;;;;;5062081;28;20200;-84
2021/05/18 00:19:16;;;;;;;0.60;0.60;;;7.70;99.90;;;;;;5043577;28;20419;-84
2021/05/18 00:21:43;;;;;;;0.57;0.47;;;;;;;;;;5044575;28;20683;-84
2021/05/18 00:24:10;;;;;;;1.33;0.50;;;7.80;99.90;;;;;;5043461;28;20427;-84
2021/05/18 00:26:36;;;;;;;1.63;0.70;;;;;;;;;;5061165;28;20442;-82
2021/05/18 00:29:02;;;;;;;0.50;0.40;;;;;;;;;;5044448;28;20840;-83
2021/05/18 00:31:28;;;;;;;0.50;0.50;;;7.80;99.90;;;;;;5044041;28;20544;-82
2021/05/18 00:33:54;;;;;;;1.27;0.60;;;;;;;;;;5043229;28;20291;-83
2021/05/18 00:36:19;;;;;;;1.30;0.60;;;7.80;99.90;;;;;;5043571;28;20181;-82
2021/05/18 00:38:45;;;;;;;1.17;0.63;;;;;;;;;;5059177;28;20182;-83
2021/05/18 00:41:11;;;;;;;0.70;0.60;;;;;;;;;;5041081;28;20180;-83
2021/05/18 00:43:38;;;;;;;1.37;0.80;;;7.80;99.90;;;;;;5040728;28;20439;-83
2021/05/18 00:46:04;;;;;;;0.70;0.70;;;7.90;99.90;;;;;;5049635;28;20165;-83
2021/05/18 00:48:31;;;;;;;0.70;0.70;;;;;;;;;;5061242;28;20674;-82
2021/05/18 00:51:00;;;;;;;0.87;0.70;;;7.90;99.90;;;;;;5042972;28;20427;-83
2021/05/18 00:53:26;;;;;;;1.47;0.70;;;;;;;;;;5060943;28;20742;-81
2021/05/18 00:55:57;;;;;;;1.70;0.90;;;;;;;;;;5046520;28;20412;-84
2021/05/18 00:58:33;;;;;;;0.57;0.50;;;7.90;99.90;;;;;;5056573;28;20181;-82
2021/05/18 01:01:03;;;;;;;0.73;0.73;;;7.80;99.90;;;;;;5063268;28;20486;-82
2021/05/18 01:03:30;;;;;;;1.47;0.60;;;7.80;99.90;;;;;;5077306;28;20239;-82
2021/05/18 01:08:42;;;;;;;0.83;0.50;;;;;;;;;;5063241;28;20399;-82
2021/05/18 01:11:08;;;;;;;0.80;0.80;;;7.60;99.90;;;;;;5063941;28;20406;-81
2021/05/18 01:13:35;;;;;;;0.90;0.60;;;7.70;99.90;;;;;;5065516;28;20205;-82
2021/05/18 01:16:02;;;;;;;0.63;0.63;;;7.70;99.90;;;;;;5044747;28;20420;-80
2021/05/18 01:18:38;;;;;;;0.70;0.70;;;7.70;99.90;;;;;;5058959;28;20165;-82
2021/05/18 01:21:05;;;;;;;0.60;0.60;;;7.70;99.90;;;;;;5039778;28;20454;-82
2021/05/18 01:23:31;;;;;;;0.73;0.70;;;7.70;99.90;;;;;;5039769;28;20428;-82
2021/05/18 01:25:57;;;;;;;0.70;0.70;;;7.70;99.90;;;;;;5071962;28;20168;-82
2021/05/18 01:28:24;;;;;;;1.10;0.70;;;7.80;99.90;;;;;;5063301;28;20178;-82
2021/05/18 01:30:50;;;;;;;0.60;0.60;;;;;;;;;;5045272;28;20177;-82
2021/05/18 01:33:17;;;;;;;1.10;0.77;;;7.80;99.90;;;;;;5061858;28;20466;-82
2021/05/18 01:35:43;;;;;;;1.10;0.70;;;7.80;99.90;;;;;;5063768;28;20177;-82
2021/05/18 01:38:14;;;;;;;0.50;0.50;;;;;;;;;;5063843;28;20174;-82
2021/05/18 01:43:13;;;;;;;1.07;0.90;;;7.80;99.90;;;;;;5064859;28;20485;-82
2021/05/18 01:45:42;;;;;;;2.70;0.60;;;;;;;;;;5046185;28;20170;-82
2021/05/18 01:48:12;;;;;;;0.57;0.57;;;7.90;99.90;;;;;;5046093;28;20253;-84
2021/05/18 01:50:39;;;;;;;1.00;0.73;;;7.90;99.90;;;;;;5046290;28;20413;-84
2021/05/18 01:53:08;;;;;;;1.00;0.90;;;;;;;;;;5046224;28;20201;-83
2021/05/18 01:55:39;;;;;;;0.87;0.87;;;;;;;;;;5063213;28;20411;-84
2021/05/18 01:58:06;;;;;;;1.20;0.70;;;7.90;99.90;;;;;;5063741;28;20200;-83
2021/05/18 02:00:35;;;;;;;5.20;0.93;;;7.90;99.90;;;;;;5065716;28;20177;-84
2021/05/18 02:03:01;;;;;;;0.60;0.60;;;7.90;99.90;;;;;;5050426;28;20451;-83
2021/05/18 02:05:39;;;;;;;0.70;0.70;;;7.80;99.90;;;;;;5042926;28;20181;-83
2021/05/18 02:08:08;;;;;;;1.37;0.70;;;7.80;99.90;;;;;;5043779;28;20161;-83
2021/05/18 02:10:35;;;;;;;1.23;0.70;;;;;;;;;;5060766;28;20416;-84
2021/05/18 02:13:01;;;;;;;1.20;0.63;;;;;;;;;;5060772;28;20830;-83
2021/05/18 02:21:36;;;;;;;0.90;0.70;;;7.90;99.90;;;;;;5061492;28;20189;-83
2021/05/18 02:26:47;;;;;;;1.50;0.70;;;7.90;99.90;;;;;;5059971;28;20540;-84
2021/05/18 02:29:12;;;;;;;2.73;0.70;;;7.90;99.90;;;;;;5059696;28;20169;-83
2021/05/18 02:31:38;;;;;;;0.60;0.60;;;7.80;99.90;;;;;;5041194;28;20200;-83
2021/05/18 02:34:04;;;;;;;0.70;0.70;;;;;;;;;;5039774;28;20201;-83
2021/05/18 02:36:30;;;;;;;3.20;0.60;;;7.80;99.90;;;;;;5057998;28;20580;-83
2021/05/18 02:38:56;;;;;;;0.63;0.63;;;;;;;;;;5058062;28;20178;-83
2021/05/18 02:41:22;;;;;;;0.70;0.70;;;7.80;99.90;;;;;;5055929;28;20182;-83
2021/05/18 02:43:53;;;;;;;0.70;0.70;;;7.80;99.90;;;;;;5039142;28;20236;-83
2021/05/18 02:51:32;;;;;;;0.50;0.50;;;7.80;99.90;;;;;;5048270;28;20185;-83
2021/05/18 02:53:58;;;;;;;1.07;0.70;;;;;;;;;;5038108;28;20671;-83
2021/05/18 02:56:29;;;;;;;0.77;0.67;;;7.70;99.90;;;;;;5046116;28;20217;-84
2021/05/18 02:59:00;;;;;;;0.60;0.60;;;7.70;99.90;;;;;;5041445;28;20165;-83
2021/05/18 03:01:26;;;;;;;0.60;0.60;;;;;;;;;;5042438;28;20170;-83
2021/05/18 03:03:53;;;;;;;0.57;0.57;;;7.70;99.90;;;;;;5041935;28;20466;-82
2021/05/18 03:06:19;;;;;;;0.50;0.50;;;;;;;;;;5041763;28;20408;-83
2021/05/18 03:08:45;;;;;;;1.90;0.87;;;7.60;99.90;;;;;;5042047;28;20865;-83
2021/05/18 03:11:12;;;;;;;1.07;0.77;;;7.60;99.90;;;;;;5042009;28;20265;-83
2021/05/18 03:13:38;;;;;;;0.83;0.83;;;7.60;99.90;;;;;;5041406;28;20300;-83
2021/05/18 03:16:04;;;;;;;0.60;0.60;;;7.60;99.90;;;;;;5059878;28;20197;-83
2021/05/18 03:18:30;;;;;;;0.73;0.73;;;7.60;99.90;;;;;;5042480;28;20220;-84
2021/05/18 03:20:55;;;;;;;1.43;0.80;;;7.60;99.90;;;;;;5041725;28;20661;-83
2021/05/18 03:23:21;;;;;;;0.60;0.60;;;7.60;99.90;;;;;;5060281;28;20221;-83
2021/05/18 03:25:47;;;;;;;0.50;0.50;;;;;;;;;;5042447;28;20245;-83
2021/05/18 03:28:13;;;;;;;0.80;0.70;;;7.60;99.90;;;;;;5042489;28;20185;-83
2021/05/18 03:36:07;;;;;;;0.50;0.50;;;7.70;99.90;;;;;;5061202;28;20185;-83
2021/05/18 03:41:08;;;;;;;0.70;0.70;;;7.60;99.90;;;;;;5062710;28;20169;-83
2021/05/18 03:43:53;;;;;;;1.03;0.60;;;7.60;99.90;;;;;;5040452;28;20309;-83
2021/05/18 04:04:32;;;;;;;1.33;0.90;;;7.70;99.90;;;;;;5059943;28;20204;-84
2021/05/18 04:12:45;;;;;;;1.00;0.80;;;7.80;99.90;;;;;;5060020;28;20685;-84
2021/05/18 04:18:17;;;;;;;0.50;0.50;;;7.90;99.90;;;;;;5077637;28;20209;-84
2021/05/18 04:52:46;;;;;;;1.03;0.70;;;8.00;99.90;;;;;;5059434;28;20200;-83
2021/05/18 05:00:26;;;;;;;0.57;0.50;;;8.00;99.90;;;;;;5061207;28;20225;-84
2021/05/18 05:03:32;;;;;;;0.40;0.40;;;8.10;99.90;;;;;;5042231;28;20439;-84
2021/05/18 05:16:15;;;;;;;2.40;0.60;;;8.20;99.90;;;;;;5064660;28;20200;-84
2021/05/18 05:18:40;;;;;;;0.60;0.60;;;8.20;99.90;;;;;;5063764;28;20233;-84
2021/05/18 05:21:07;;;;;;;0.70;0.70;;;;;;;;;;5079067;28;20230;-84
2021/05/18 05:23:32;;;;;;;0.53;0.53;;;8.10;99.90;;;;;;5063106;28;20201;-84
2021/05/18 05:25:58;;;;;;;0.50;0.50;;;;;;;;;;5014588;28;20248;-84
2021/05/18 05:28:24;;;;;;;0.90;0.77;;;7.90;99.90;;;;;;5045454;28;20184;-84
2021/05/18 05:30:50;;;;;;;0.60;0.50;;;7.90;99.90;;;;;;5063752;28;20245;-84
2021/05/18 05:33:16;;;;;;;0.97;0.67;;;7.90;99.90;;;;;;5045858;28;20244;-85
2021/05/18 05:35:42;;;;;;;0.60;0.60;;;;;;;;;;5045499;28;20241;-83
2021/05/18 05:38:07;;;;;;;0.60;0.60;;;7.80;99.90;;;;;;5046185;28;20174;-84
2021/05/18 05:40:34;;;;;;;2.30;0.90;;;7.90;99.90;;;;;;5047317;28;20170;-84
2021/05/18 05:42:59;;;;;;;0.83;0.67;;;7.80;99.90;;;;;;5063996;28;20608;-84
2021/05/18 05:45:25;;;;;;;0.83;0.60;;;7.90;99.90;;;;;;5063979;28;20178;-84
2021/05/18 05:47:51;;;;;;;0.63;0.63;;;;;;;;;;5063915;28;20174;-83
2021/05/18 05:50:18;;;;;;;2.50;0.70;;;;;;;;;;5045568;28;20659;-84
2021/05/18 05:52:43;;;;;;;0.93;0.60;;;7.70;99.90;;;;;;5063713;28;20439;-84
2021/05/18 05:55:10;;;;;;;0.77;0.70;;;7.70;99.90;;;;;;5063554;28;20169;-84
2021/05/18 05:57:39;;;;;;;0.50;0.50;;;7.70;99.90;;;;;;5046204;28;20185;-84
2021/05/18 06:00:07;;;;;;;0.93;0.83;;;7.70;99.90;;;;;;5046597;28;20440;-84
2021/05/18 06:02:33;;;;;;;1.40;0.90;;;7.80;99.90;;;;;;5047448;28;20193;-84
2021/05/18 06:04:59;;;;;;;0.70;0.70;;;;;;;;;;5066924;28;20172;-84
2021/05/18 06:07:24;;;;;;;1.17;0.83;;;7.60;99.90;;;;;;5046705;28;20209;-84
2021/05/18 06:09:55;;;;;;;1.33;0.70;;;;;;;;;;5046237;28;20277;-84
2021/05/18 06:13:14;;;;;;;0.60;0.60;;;7.60;99.90;;;;;;5063848;28;20189;-84
2021/05/18 06:36:58;;;;;;;0.70;0.70;;;7.20;99.90;;;;;;5061693;28;20412;-83
2021/05/18 06:47:38;;;;;;;0.87;0.87;;;7.30;99.90;;;;;;5061828;28;20396;-83
2021/05/18 06:52:41;;;;;;;0.70;0.70;;;7.60;99.90;;;;;;5062680;28;20251;-83
2021/05/18 06:55:09;;;;;;;0.80;0.80;;;7.70;99.90;;;;;;5044754;28;20424;-83
2021/05/18 06:57:37;;;;;;;1.03;1.00;;;;;;;;;;5045060;28;20502;-83
2021/05/18 07:00:09;;;;;;;0.90;0.57;;;7.80;99.90;;;;;;5044141;28;20416;-83
2021/05/18 07:02:43;;;;;;;0.60;0.60;;;7.90;99.90;;;;;;5061642;28;20989;-83
2021/05/18 07:07:40;;;;;;;1.80;0.60;;;7.90;99.90;;;;;;5061956;28;20423;-83
2021/05/18 07:10:06;;;;;;;0.97;0.60;;;8.00;99.90;;;;;;5061819;28;20181;-84
2021/05/18 07:12:32;;;;;;;1.93;0.93;;;7.90;99.90;;;;;;5043562;28;20201;-84
2021/05/18 07:14:59;;;;;;;8.97;4.93;;;8.00;99.90;;;;;;5042152;28;20205;-83
2021/05/18 07:17:25;;;;;;;9.90;5.40;;;8.00;99.90;;;;;;5041593;28;20203;-84
2021/05/18 07:19:51;;;;;;;3.13;2.00;;;;;;;;;;5073649;28;20150;-84
2021/05/18 07:22:17;;;;;;;1.60;1.20;;;8.10;99.90;;;;;;5043176;28;20209;-83
2021/05/18 07:24:43;;;;;;;4.10;2.87;;;;;;;;;;5061221;28;20428;-83
2021/05/18 07:27:10;;;;;;;0.87;0.57;;;8.20;99.90;;;;;;5042571;28;20640;-84
2021/05/18 07:29:36;;;;;;;1.70;1.47;;;;;;;;;;5060828;28;20510;-83
2021/05/18 07:32:02;;;;;;;1.10;1.00;;;;;;;;;;5051467;28;20197;-83
2021/05/18 07:34:28;;;;;;;2.30;1.17;;;8.40;99.90;;;;;;5077389;28;20200;-83
2021/05/18 07:36:53;;;;;;;0.60;0.60;;;8.40;99.90;;;;;;5076013;28;20182;-83
2021/05/18 07:39:19;;;;;;;2.00;0.60;;;8.30;99.90;;;;;;5051455;28;20577;-83
2021/05/18 07:41:45;;;;;;;2.67;0.93;;;;;;;;;;5061767;28;20261;-83
2021/05/18 07:44:11;;;;;;;2.03;1.80;;;;;;;;;;5060770;28;20196;-83
2021/05/18 07:46:39;;;;;;;1.57;1.23;;;8.20;99.90;;;;;;5044012;28;20188;-83
2021/05/18 07:49:12;;;;;;;1.07;0.70;;;;;;;;;;5044770;28;20451;-83
2021/05/18 07:59:51;;;;;;;3.27;2.40;;;7.80;99.90;;;;;;5061861;28;20382;-83
2021/05/18 08:07:38;;;;;;;1.43;1.00;;;7.80;99.90;;;;;;5061873;28;20443;-83
2021/05/18 08:12:31;;;;;;;1.17;0.60;;;7.80;99.90;;;;;;5061438;28;20600;-84
2021/05/18 08:17:26;;;;;;;1.30;0.60;;;7.70;99.90;;;;;;5063364;28;20173;-84
2021/05/18 10:38:32;;;;;;;1.13;0.73;;;8.70;99.90;;;;;;5085533;28;20645;-84
2021/05/18 10:41:17;;;;;;;3.93;2.13;;;9.80;99.90;;;;;;5066773;28;20513;-83
2021/05/18 10:43:56;;;;;;;1.60;1.10;;;9.80;99.90;;;;;;5067834;28;20204;-84
2021/05/18 10:46:24;;;;;;;1.33;0.97;;;10.10;99.90;;;;;;5069338;28;20172;-83
2021/05/18 10:48:55;;;;;;;0.57;0.40;;;10.00;99.90;;;;;;5086316;28;20171;-84
2021/05/18 10:51:25;;;;;;;19.67;8.60;;;9.90;99.90;;;;;;5070960;28;20527;-83
2021/05/18 10:54:26;;;;;;;0.87;0.63;;;9.90;99.90;;;;;;5074490;28;20228;-83
2021/05/18 10:56:56;;;;;;;3.50;0.80;;;10.40;99.90;;;;;;5076709;28;20169;-83
2021/05/18 10:59:23;;;;;;;0.73;0.47;;;11.30;99.90;;;;;;5070837;28;20169;-84
2021/05/18 11:01:55;;;;;;;1.23;1.10;;;11.00;99.90;;;;;;5063684;28;20585;-84
2021/05/18 11:04:21;;;;;;;1.33;1.23;;;11.00;99.90;;;;;;5046618;28;20165;-84
2021/05/18 11:06:54;;;;;;;1.40;0.50;;;11.50;99.90;;;;;;5063527;28;20188;-84
2021/05/18 11:09:21;;;;;;;1.87;0.93;;;11.90;99.90;;;;;;5063170;28;20172;-84
2021/05/18 11:11:49;;;;;;;3.17;1.53;;;12.30;99.90;;;;;;5045648;28;20204;-84
2021/05/18 11:14:16;;;;;;;2.10;0.73;;;13.00;99.90;;;;;;5045461;28;20215;-84
2021/05/18 11:16:42;;;;;;;0.90;0.50;;;13.80;99.90;;;;;;5044702;28;20184;-85
2021/05/18 11:19:12;;;;;;;1.20;0.80;;;13.90;99.90;;;;;;5044691;28;20177;-84
2021/05/18 11:21:42;;;;;;;0.50;0.50;;;13.50;99.90;;;;;;5063188;28;20975;-85
2021/05/18 11:24:12;;;;;;;1.70;0.60;;;13.60;99.90;;;;;;5044346;28;20689;-85
2021/05/18 11:26:50;;;;;;;1.23;0.50;;;13.30;99.90;;;;;;5043487;28;20182;-85
2021/05/18 11:29:36;;;;;;;1.70;0.80;;;12.60;99.90;;;;;;5061142;28;20235;-85
2021/05/18 11:32:11;;;;;;;1.63;0.60;;;12.50;99.90;;;;;;5042929;28;20205;-85
2021/05/18 11:34:57;;;;;;;2.37;0.50;;;12.60;99.90;;;;;;5060580;28;20205;-84
2021/05/18 11:37:24;;;;;;;1.87;1.13;;;12.90;99.90;;;;;;5042546;28;20176;-86
2021/05/18 11:39:50;;;;;;;1.50;0.80;;;12.80;99.90;;;;;;5043561;28;20260;-85
2021/05/18 11:42:29;;;;;;;1.77;0.50;;;12.80;99.90;;;;;;5045142;28;20236;-85
2021/05/18 11:45:08;;;;;;;0.63;0.57;;;12.60;99.90;;;;;;5065701;28;20177;-85
2021/05/18 11:47:34;;;;;;;1.53;1.00;;;12.30;99.90;;;;;;5045542;28;20189;-85
2021/05/18 11:49:59;;;;;;;3.47;0.83;;;11.80;99.90;;;;;;5064134;28;20169;-85
2021/05/18 11:52:25;;;;;;;1.13;0.80;;;11.80;99.90;;;;;;5064078;28;20201;-85
2021/05/18 11:54:51;;;;;;;0.73;0.60;;;11.80;99.90;;;;;;5062962;28;20193;-86
2021/05/18 11:57:16;;;;;;;2.10;0.60;;;12.00;99.90;;;;;;5063435;28;20264;-85
2021/05/18 11:59:43;;;;;;;2.37;0.90;;;12.50;99.90;;;;;;5063667;28;20180;-85
2021/05/18 12:02:08;;;;;;;1.63;0.53;;;12.20;99.90;;;;;;5046529;28;20819;-85
2021/05/18 12:04:40;;;;;;;0.97;0.60;;;12.10;99.90;;;;;;5046648;28;20189;-85
2021/05/18 12:07:12;;;;;;;0.70;0.40;;;11.90;99.90;;;;;;5062565;28;20177;-85
2021/05/18 12:09:43;;;;;;;1.47;0.60;;;11.80;99.90;;;;;;5044710;28;20196;-84
2021/05/18 12:12:11;;;;;;;1.27;0.50;;;11.70;99.90;;;;;;5060735;28;20189;-84
2021/05/18 12:14:50;;;;;;;0.90;0.50;;;12.60;99.90;;;;;;5042496;28;20615;-85
2021/05/18 12:17:26;;;;;;;1.40;0.80;;;14.20;99.90;;;;;;5042812;28;20161;-86
2021/05/18 12:19:52;;;;;;;1.10;0.80;;;14.30;99.90;;;;;;5043734;28;20169;-83
2021/05/18 12:22:17;;;;;;;1.83;1.00;;;14.50;99.90;;;;;;5042689;28;20299;-84
2021/05/18 12:24:43;;;;;;;2.33;0.90;;;15.40;99.90;;;;;;5043222;28;20181;-85
2021/05/18 12:27:10;;;;;;;2.67;1.00;;;15.80;99.90;;;;;;5059757;28;20181;-83
2021/05/18 12:29:45;;;;;;;0.70;0.60;;;15.70;99.90;;;;;;5042445;28;20177;-85
2021/05/18 12:32:16;;;;;;;3.50;2.20;;;15.50;99.90;;;;;;5062628;28;20663;-85
2021/05/18 12:34:43;;;;;;;2.90;2.00;;;16.00;99.90;;;;;;5043968;28;20225;-85
2021/05/18 12:37:10;;;;;;;2.27;1.47;;;16.80;99.90;;;;;;5044725;28;20640;-85
2021/05/18 12:39:42;;;;;;;0.93;0.50;;;16.80;99.90;;;;;;5043605;28;20201;-83
2021/05/18 12:42:14;;;;;;;0.70;0.60;;;17.00;99.90;;;;;;5043987;28;20198;-76
2021/05/18 12:45:15;;;;;;;0.83;0.73;;;17.10;99.90;;;;;;5062394;28;20221;-84
2021/05/18 12:47:42;;;;;;;1.17;0.70;;;16.60;99.90;;;;;;5019326;28;20642;-82
2021/05/18 12:50:11;;;;;;;1.40;0.70;;;15.90;99.90;;;;;;5039720;28;20196;-83
2021/05/18 12:52:39;;;;;;;0.93;0.87;;;15.30;99.90;;;;;;5060704;28;20259;-84
2021/05/18 12:55:26;;;;;;;0.93;0.67;;;15.60;99.90;;;;;;5044495;28;20214;-85
2021/05/18 12:58:01;;;;;;;2.93;1.20;;;16.60;99.90;;;;;;5043637;28;20183;-77
2021/05/18 13:00:39;;;;;;;0.83;0.53;;;17.60;99.90;;;;;;5044776;28;20181;-84
2021/05/18 13:03:14;;;;;;;0.80;0.70;;;17.60;99.90;;;;;;5040980;28;20196;-84
2021/05/18 13:05:43;;;;;;;0.80;0.50;;;17.30;99.90;;;;;;5058390;28;20159;-84
2021/05/18 13:08:08;;;;;;;0.60;0.50;;;17.40;99.90;;;;;;5042270;28;20241;-83
2021/05/18 13:13:10;;;;;;;1.47;0.60;;;17.10;99.90;;;;;;5066565;28;20245;-83
2021/05/18 13:15:37;;;;;;;1.00;0.70;;;17.10;99.90;;;;;;5043807;28;20179;-84
2021/05/18 13:18:06;;;;;;;0.80;0.70;;;17.40;99.90;;;;;;5044684;28;20201;-84
2021/05/18 13:20:51;;;;;;;0.77;0.60;;;17.60;97.80;;;;;;5043705;28;20220;-85
2021/05/18 13:23:29;;;;;;;3.40;0.87;;;17.80;97.80;;;;;;5046029;28;20239;-83
2021/05/18 13:28:39;;;;;;;0.77;0.73;;;16.30;99.90;;;;;;5063110;28;20190;-83
2021/05/18 13:31:06;;;;;;;0.60;0.60;;;16.00;99.90;;;;;;5044943;28;20277;-84
2021/05/18 13:33:32;;;;;;;0.90;0.73;;;15.30;99.90;;;;;;5045443;28;20229;-84
2021/05/18 13:35:59;;;;;;;2.27;0.60;;;14.50;99.90;;;;;;5046527;28;20181;-84
2021/05/18 13:38:25;;;;;;;1.90;1.70;;;14.00;99.90;;;;;;5062785;28;20182;-83
2021/05/18 13:40:50;;;;;;;1.63;0.70;;;13.70;99.90;;;;;;5044399;28;20178;-84
2021/05/18 13:43:16;;;;;;;0.90;0.60;;;14.60;99.90;;;;;;5045115;28;20286;-84
2021/05/18 13:45:43;;;;;;;1.73;0.50;;;15.50;99.90;;;;;;5059806;28;20190;-84
2021/05/18 13:48:09;;;;;;;2.70;0.80;;;16.40;99.90;;;;;;5060410;28;20590;-84
2021/05/18 13:50:35;;;;;;;0.80;0.70;;;17.10;99.90;;;;;;5041884;28;20173;-84
2021/05/18 13:53:01;;;;;;;1.70;0.70;;;18.20;99.40;;;;;;5040955;28;20206;-83
2021/05/18 13:55:28;;;;;;;1.40;0.60;;;18.70;98.30;;;;;;5049008;28;20178;-84
2021/05/18 13:57:53;;;;;;;1.23;0.70;;;18.60;96.30;;;;;;5060588;28;20174;-84
2021/05/18 14:00:20;;;;;;;0.73;0.70;;;18.50;99.70;;;;;;5042375;28;20176;-84
2021/05/18 14:02:47;;;;;;;2.67;0.83;;;18.50;99.90;;;;;;5040937;28;20204;-85
2021/05/18 14:05:19;;;;;;;1.07;0.73;;;18.20;96.30;;;;;;5057615;28;20181;-83
2021/05/18 14:11:18;;;;;;;0.77;0.60;;;15.80;99.40;;;;;;5076407;28;20169;-83
2021/05/18 14:13:53;;;;;;;0.63;0.50;;;16.20;99.90;;;;;;5055056;28;20202;-83
2021/05/18 14:16:21;;;;;;;1.03;0.63;;;17.70;98.10;;;;;;5074596;28;20171;-84
2021/05/18 14:18:51;;;;;;;1.17;0.70;;;18.10;96.40;;;;;;5043338;28;20179;-84
2021/05/18 14:21:20;;;;;;;0.90;0.70;;;18.80;99.50;;;;;;5044284;28;20197;-84
2021/05/18 14:26:22;;;;;;;1.43;0.63;;;18.40;94.20;;;;;;5061787;28;20150;-84
2021/05/18 14:28:48;;;;;;;1.70;1.07;;;17.30;95.10;;;;;;5042457;28;20231;-84
2021/05/18 14:31:15;;;;;;;1.70;0.80;;;16.30;96.80;;;;;;5041342;28;20174;-83
2021/05/18 14:33:41;;;;;;;1.03;0.90;;;15.00;99.70;;;;;;5041642;28;20278;-83
2021/05/18 14:36:08;;;;;;;0.77;0.77;;;14.00;99.90;;;;;;5059914;28;20185;-83
2021/05/18 14:38:35;;;;;;;2.63;1.10;;;13.40;99.90;;;;;;5041815;28;20174;-83
2021/05/18 14:54:45;;;;;;;43.93;27.97;;;12.30;99.90;;;;;;5060194;28;20573;-85
2021/05/18 14:57:11;;;;;;;34.43;21.27;;;12.20;99.90;;;;;;5043201;28;20173;-85
2021/05/18 14:59:37;;;;;;;12.53;8.57;;;12.40;99.90;;;;;;5062009;28;20663;-85
2021/05/18 15:02:03;;;;;;;3.03;1.13;;;12.70;99.90;;;;;;5044561;28;20193;-85
2021/05/18 15:04:29;;;;;;;1.30;1.20;;;12.90;99.90;;;;;;5062672;28;20619;-85
2021/05/18 15:06:56;;;;;;;0.83;0.70;;;12.90;99.90;;;;;;5050501;28;20280;-85
2021/05/18 15:09:21;;;;;;;0.50;0.50;;;12.70;99.90;;;;;;5042381;28;20174;-85
2021/05/18 15:11:47;;;;;;;2.77;1.90;;;12.20;99.90;;;;;;5044552;28;20197;-85
2021/05/18 15:14:13;;;;;;;3.20;2.47;;;12.20;99.90;;;;;;5044320;28;20288;-86
2021/05/18 15:16:39;;;;;;;1.97;1.27;;;12.10;99.90;;;;;;5062404;28;20225;-85
2021/05/18 15:19:10;;;;;;;0.77;0.70;;;;;;;;;;5062677;28;20201;-85
2021/05/18 15:21:36;;;;;;;4.53;1.40;;;11.10;99.90;;;;;;5060692;28;20193;-84
2021/05/18 15:24:04;;;;;;;1.97;0.73;;;11.00;99.90;;;;;;5042664;28;20558;-85
2021/05/18 15:26:29;;;;;;;8.03;6.43;;;10.50;99.90;;;;;;5043916;28;20181;-83
2021/05/18 15:28:56;;;;;;;1.00;0.73;;;10.20;99.90;;;;;;5027837;28;20205;-85
2021/05/18 15:31:22;;;;;;;2.93;2.63;;;10.50;99.90;;;;;;5046059;28;20185;-84
2021/05/18 15:33:48;;;;;;;38.90;34.70;;;;;;;;;;5072907;28;20235;-84
2021/05/18 15:36:17;;;;;;;18.60;14.33;;;;;;;;;;5083714;28;20172;-84
2021/05/18 15:38:45;;;;;;;22.03;17.40;;;11.20;99.90;;;;;;5083789;28;20181;-83
2021/05/18 15:41:13;;;;;;;21.07;18.70;;;11.40;99.90;;;;;;5061533;28;20256;-83
2021/05/18 15:43:39;;;;;;;4.27;3.47;;;11.70;99.90;;;;;;5059471;28;20190;-84
2021/05/18 15:46:05;;;;;;;5.70;4.20;;;11.70;99.90;;;;;;5060562;28;20614;-82
2021/05/18 15:48:32;;;;;;;3.00;2.70;;;11.90;99.90;;;;;;5057907;28;20635;-84
2021/05/18 15:50:58;;;;;;;2.97;1.30;;;12.40;99.90;;;;;;5039008;28;20600;-84
2021/05/18 15:53:24;;;;;;;1.63;1.50;;;12.50;99.90;;;;;;5040162;28;20587;-83
2021/05/18 15:55:50;;;;;;;2.77;2.50;;;12.90;99.90;;;;;;5054478;28;20200;-83
2021/05/18 15:58:16;;;;;;;6.27;4.43;;;;;;;;;;5061247;28;20177;-84
2021/05/18 16:00:42;;;;;;;2.80;2.20;;;13.30;99.90;;;;;;5042046;28;20188;-84
2021/05/18 16:03:07;;;;;;;2.80;1.50;;;14.10;99.90;;;;;;5042064;28;20208;-86
2021/05/18 16:05:34;;;;;;;2.50;0.90;;;14.10;99.90;;;;;;5060501;28;20185;-85
2021/05/18 16:08:58;;;;;;;1.33;1.03;;;14.10;99.90;;;;;;5042816;28;20185;-86
2021/05/18 16:10:51;;;;;;;2.67;1.23;;;13.40;99.90;;;;;;5060121;28;20181;-85
2021/05/18 16:13:16;;;;;;;2.70;1.70;;;12.80;99.90;;;;;;5059912;28;20275;-85
2021/05/18 16:15:43;;;;;;;3.93;2.30;;;12.30;99.90;;;;;;5062214;28;20607;-85
2021/05/18 16:18:09;;;;;;;5.17;2.30;;;12.30;99.90;;;;;;5062380;28;20173;-85
2021/05/18 16:20:35;;;;;;;6.10;5.50;;;;;;;;;;5044049;28;20228;-85
2021/05/18 16:23:01;;;;;;;5.63;2.70;;;11.70;99.90;;;;;;5041788;28;20210;-83
2021/05/18 16:25:26;;;;;;;5.10;2.40;;;11.70;99.90;;;;;;5043986;28;20185;-83
2021/05/18 16:27:52;;;;;;;3.77;1.67;;;;;;;;;;5061523;28;20578;-84
2021/05/18 16:30:22;;;;;;;8.77;3.13;;;11.40;99.90;;;;;;5061304;28;20183;-85
2021/05/18 16:32:48;;;;;;;4.77;1.40;;;;;;;;;;5042867;28;20201;-82
2021/05/18 16:35:13;;;;;;;5.70;1.80;;;11.50;99.90;;;;;;5045733;28;20728;-84
2021/05/18 16:37:40;;;;;;;2.20;1.20;;;11.60;99.90;;;;;;5042791;28;20178;-83
2021/05/18 16:40:09;;;;;;;2.17;0.93;;;;;;;;;;5062625;28;20534;-83
2021/05/18 16:42:36;;;;;;;0.97;0.60;;;;;;;;;;5053355;28;20295;-83
2021/05/18 16:45:07;;;;;;;1.93;0.80;;;11.60;99.90;;;;;;5063521;28;20188;-82
2021/05/18 16:47:33;;;;;;;1.83;1.13;;;11.50;99.90;;;;;;5083740;28;20179;-83
2021/05/18 16:50:00;;;;;;;2.47;0.83;;;11.30;99.90;;;;;;5063711;28;20256;-83
2021/05/18 16:52:25;;;;;;;2.43;1.63;;;11.30;99.90;;;;;;5065560;28;20209;-83
2021/05/18 16:54:51;;;;;;;5.90;1.97;;;11.30;99.90;;;;;;5066597;28;20302;-82
2021/05/18 16:57:17;;;;;;;2.53;1.20;;;11.30;99.90;;;;;;5066525;28;20219;-82
2021/05/18 16:59:43;;;;;;;1.70;1.10;;;11.10;99.90;;;;;;5084201;28;20584;-82
2021/05/18 17:02:09;;;;;;;2.40;1.00;;;10.90;99.90;;;;;;5082375;28;20235;-83
2021/05/18 17:04:35;;;;;;;0.73;0.70;;;10.80;99.90;;;;;;5063440;28;20218;-82
2021/05/18 17:07:02;;;;;;;1.87;0.77;;;;;;;;;;5065775;28;20180;-82
2021/05/18 17:09:29;;;;;;;2.43;1.20;;;10.70;99.90;;;;;;5064277;28;20190;-82
2021/05/18 17:11:56;;;;;;;5.40;2.93;;;10.70;99.90;;;;;;5065626;28;20204;-82
2021/05/18 17:14:23;;;;;;;4.40;2.27;;;10.60;99.90;;;;;;5091304;28;20209;-82
2021/05/18 17:16:49;;;;;;;4.93;2.13;;;10.50;99.90;;;;;;5079143;28;20658;-82
2021/05/18 17:19:15;;;;;;;3.30;1.93;;;10.60;99.90;;;;;;5076415;28;20175;-82
2021/05/18 17:21:42;;;;;;;2.37;1.80;;;10.60;99.90;;;;;;5065360;28;20597;-82
2021/05/18 17:24:09;;;;;;;4.37;4.00;;;10.60;99.90;;;;;;5082608;28;20201;-82
2021/05/18 17:26:35;;;;;;;3.83;3.00;;;10.70;99.90;;;;;;5082534;28;20172;-83
2021/05/18 17:29:01;;;;;;;1.33;1.13;;;10.70;99.90;;;;;;5065313;28;20182;-82
2021/05/18 17:31:28;;;;;;;1.60;1.50;;;10.60;99.90;;;;;;5084641;28;20177;-82
2021/05/18 17:33:53;;;;;;;1.50;1.00;;;10.60;99.90;;;;;;5066904;28;20292;-82
2021/05/18 17:36:20;;;;;;;1.73;0.90;;;;;;;;;;5084493;28;20190;-85
2021/05/18 17:38:46;;;;;;;4.47;3.57;;;10.40;99.90;;;;;;5065925;28;20182;-83
2021/05/18 17:41:12;;;;;;;1.83;1.47;;;;;;;;;;5084630;28;20213;-83
2021/05/18 17:43:38;;;;;;;2.67;1.57;;;10.20;99.90;;;;;;5083728;28;20197;-83
2021/05/18 17:46:08;;;;;;;2.50;1.33;;;10.20;99.90;;;;;;5083666;28;20172;-82
2021/05/18 17:48:34;;;;;;;3.60;1.33;;;10.10;99.90;;;;;;5065224;28;20205;-82
2021/05/18 17:51:00;;;;;;;1.27;1.07;;;;;;;;;;5084121;28;20208;-83
2021/05/18 17:53:26;;;;;;;2.47;0.90;;;10.00;99.90;;;;;;5063780;28;20228;-83
2021/05/18 17:55:52;;;;;;;5.23;1.10;;;;;;;;;;5062329;28;20170;-82
2021/05/18 17:58:18;;;;;;;1.70;1.20;;;9.80;99.90;;;;;;5088707;28;20725;-82
2021/05/18 18:00:44;;;;;;;1.70;1.00;;;9.80;99.90;;;;;;5084340;28;20235;-84
2021/05/18 18:03:10;;;;;;;3.80;0.93;;;;;;;;;;5063649;28;20209;-83
2021/05/18 18:05:36;;;;;;;2.10;0.97;;;9.50;99.90;;;;;;5064780;28;20181;-82
2021/05/18 18:08:03;;;;;;;2.80;1.50;;;9.60;99.90;;;;;;5064653;28;20209;-83
2021/05/18 18:10:29;;;;;;;1.10;0.90;;;9.60;99.90;;;;;;5065613;28;20263;-86
2021/05/18 18:12:57;;;;;;;2.40;1.20;;;;;;;;;;5063803;28;20594;-82
2021/05/18 18:15:23;;;;;;;2.17;1.33;;;;;;;;;;5079591;28;20265;-82
2021/05/18 18:17:49;;;;;;;3.37;1.73;;;9.40;99.90;;;;;;5083203;28;20689;-82
2021/05/18 18:20:16;;;;;;;5.20;2.70;;;9.40;99.90;;;;;;5082563;28;20175;-82
2021/05/18 18:22:43;;;;;;;4.30;2.93;;;;;;;;;;5066007;28;20205;-85
2021/05/18 18:25:10;;;;;;;6.80;2.77;;;9.40;99.90;;;;;;5064026;28;20201;-82
2021/05/18 18:27:35;;;;;;;8.83;5.40;;;9.30;99.90;;;;;;5090440;28;20258;-85
2021/05/18 18:30:03;;;;;;;8.07;3.60;;;;;;;;;;5068230;28;20231;-85
2021/05/18 18:32:29;;;;;;;7.13;3.83;;;9.30;99.90;;;;;;5068582;28;20197;-84
2021/05/18 18:34:55;;;;;;;6.67;3.50;;;;;;;;;;5068471;28;20205;-85
2021/05/18 18:37:21;;;;;;;8.33;5.00;;;9.20;99.90;;;;;;5087568;28;20178;-84